Time;durP1;ratioP1;P1;durP2;ratioP2;P2;SDS_P1;SDS_P2;PMS_P1;PMS_P2;Temp;Humidity;BMP_temperature;BMP_pressure;BME280_temperature;BME280_humidity;BME280_pressure;Samples;Min_cycle;Max_cycle;Signal;HPM_P1;HPM_P2
2023/10/14 00:01:11;;;;;;;12.10;10.90;;;20.00;99.90;;;;;;4973831;28;20443;-64
2023/10/14 00:03:41;;;;;;;13.97;11.70;;;20.00;99.90;;;;;;4956420;28;20822;-63
2023/10/14 00:06:08;;;;;;;14.73;11.83;;;20.00;99.90;;;;;;4973788;28;20423;-64
2023/10/14 00:08:35;;;;;;;16.47;11.67;;;20.00;99.90;;;;;;4974000;28;20442;-64
2023/10/14 00:11:07;;;;;;;12.97;11.60;;;20.00;99.90;;;;;;4972322;28;20430;-63
2023/10/14 00:13:42;;;;;;;11.63;10.43;;;19.90;99.90;;;;;;4973448;28;20482;-63
2023/10/14 00:18:55;;;;;;;13.33;11.83;;;20.00;99.90;;;;;;4972841;28;20420;-63
2023/10/14 00:21:23;;;;;;;15.30;12.00;;;20.00;99.90;;;;;;4973846;28;20831;-63
2023/10/14 00:23:51;;;;;;;12.43;11.20;;;20.00;99.90;;;;;;4972581;28;20420;-63
2023/10/14 00:26:20;;;;;;;13.90;10.77;;;20.00;99.90;;;;;;4956421;28;20988;-63
2023/10/14 00:28:46;;;;;;;13.73;10.40;;;20.00;99.90;;;;;;4932976;29;20485;-62
2023/10/14 00:31:13;;;;;;;11.93;10.80;;;20.00;99.90;;;;;;4934977;29;20438;-64
2023/10/14 00:33:39;;;;;;;11.20;9.60;;;20.10;99.90;;;;;;4926985;29;20429;-63
2023/10/14 00:36:10;;;;;;;9.93;8.93;;;20.10;99.90;;;;;;4920376;29;20564;-64
2023/10/14 00:38:38;;;;;;;11.93;9.83;;;20.10;99.90;;;;;;4921823;29;20179;-63
2023/10/14 00:41:08;;;;;;;12.20;11.10;;;20.10;99.90;;;;;;4915436;29;20699;-64
2023/10/14 00:43:34;;;;;;;11.67;10.53;;;20.10;99.90;;;;;;4917086;29;20418;-63
2023/10/14 00:46:06;;;;;;;12.50;11.20;;;20.20;99.90;;;;;;4933576;29;20441;-63
2023/10/14 00:48:34;;;;;;;13.17;11.50;;;20.20;99.90;;;;;;4934459;29;20434;-63
2023/10/14 00:51:01;;;;;;;12.97;11.67;;;20.20;99.90;;;;;;4933938;29;20462;-63
2023/10/14 00:53:30;;;;;;;12.30;11.07;;;20.20;99.90;;;;;;4934684;29;20426;-63
2023/10/14 00:55:57;;;;;;;14.00;12.30;;;20.30;99.90;;;;;;4933750;29;20881;-63
2023/10/14 00:58:28;;;;;;;11.47;10.37;;;20.20;99.90;;;;;;4934797;29;20493;-64
2023/10/14 01:00:57;;;;;;;14.87;11.43;;;20.20;99.90;;;;;;4933924;29;20893;-64
2023/10/14 01:03:24;;;;;;;12.13;11.10;;;20.20;99.90;;;;;;4934880;29;20436;-63
2023/10/14 01:05:50;;;;;;;13.27;11.87;;;20.20;99.90;;;;;;4933804;29;20778;-64
2023/10/14 01:08:17;;;;;;;12.43;11.33;;;20.20;99.90;;;;;;4934831;29;20417;-65
2023/10/14 01:10:43;;;;;;;12.00;10.80;;;20.10;99.90;;;;;;4927555;29;20765;-60
2023/10/14 01:13:13;;;;;;;13.13;11.90;;;20.10;99.90;;;;;;4915211;29;20433;-63
2023/10/14 01:15:45;;;;;;;12.30;11.03;;;20.00;99.90;;;;;;4932404;29;20201;-63
2023/10/14 01:18:14;;;;;;;12.00;11.00;;;20.00;99.90;;;;;;4934601;29;20443;-63
2023/10/14 01:20:43;;;;;;;12.10;10.80;;;19.90;99.90;;;;;;4935133;29;20402;-64
2023/10/14 01:23:14;;;;;;;12.07;10.60;;;19.80;99.90;;;;;;4933799;29;20429;-63
2023/10/14 01:25:46;;;;;;;16.13;11.47;;;19.80;99.90;;;;;;4902152;29;20441;-63
2023/10/14 01:28:20;;;;;;;17.67;11.43;;;19.80;99.90;;;;;;4946763;28;20464;-64
2023/10/14 01:31:38;;;;;;;13.20;11.77;;;19.80;99.90;;;;;;4939017;28;20420;-60
2023/10/14 01:34:05;;;;;;;12.90;11.23;;;19.80;99.90;;;;;;4958976;28;20484;-64
2023/10/14 01:36:37;;;;;;;11.53;10.40;;;19.80;99.90;;;;;;4961313;28;20525;-63
2023/10/14 01:39:21;;;;;;;13.63;11.23;;;19.80;99.90;;;;;;4972012;28;20428;-63
2023/10/14 01:41:47;;;;;;;12.77;11.67;;;19.80;99.90;;;;;;4953836;28;20443;-60
2023/10/14 01:44:21;;;;;;;12.00;10.77;;;19.80;99.90;;;;;;4953458;28;20417;-64
2023/10/14 01:46:47;;;;;;;11.60;10.50;;;19.80;99.90;;;;;;4954058;28;20750;-60
2023/10/14 01:49:19;;;;;;;11.63;10.47;;;19.70;99.90;;;;;;4972408;28;20899;-63
2023/10/14 01:51:49;;;;;;;12.70;11.50;;;19.70;99.90;;;;;;4972181;28;20803;-63
2023/10/14 01:54:16;;;;;;;12.17;10.90;;;19.70;99.90;;;;;;4974510;28;20938;-63
2023/10/14 01:56:43;;;;;;;8.03;7.23;;;19.70;99.90;;;;;;4974262;28;20505;-63
2023/10/14 01:59:09;;;;;;;6.47;5.97;;;19.70;99.90;;;;;;4975666;28;20431;-64
2023/10/14 02:01:41;;;;;;;6.60;6.00;;;19.50;99.90;;;;;;4975395;28;20427;-63
2023/10/14 02:04:07;;;;;;;4.70;4.40;;;19.30;99.90;;;;;;4956135;28;20432;-63
2023/10/14 02:06:33;;;;;;;4.73;4.43;;;19.20;99.90;;;;;;4963656;28;20522;-63
2023/10/14 02:09:00;;;;;;;7.10;6.43;;;19.00;99.90;;;;;;4975256;28;20567;-63
2023/10/14 02:11:33;;;;;;;5.03;4.67;;;19.00;99.90;;;;;;4975921;28;20176;-63
2023/10/14 02:14:06;;;;;;;7.80;5.90;;;18.90;99.90;;;;;;4974867;28;20801;-63
2023/10/14 02:16:40;;;;;;;4.03;3.80;;;19.00;99.90;;;;;;4946487;29;20504;-64
2023/10/14 02:21:57;;;;;;;4.13;3.90;;;18.90;99.90;;;;;;4975521;28;20750;-60
2023/10/14 02:24:25;;;;;;;4.00;3.70;;;19.00;99.90;;;;;;4975994;28;20411;-64
2023/10/14 02:27:10;;;;;;;4.00;3.80;;;18.90;99.90;;;;;;4973620;28;20456;-60
2023/10/14 02:29:35;;;;;;;3.20;3.10;;;18.90;99.90;;;;;;4956749;29;20503;-65
2023/10/14 02:32:01;;;;;;;3.33;3.13;;;18.80;99.90;;;;;;4958579;28;20459;-63
2023/10/14 02:34:27;;;;;;;3.40;3.20;;;18.80;99.90;;;;;;4974714;28;20192;-63
2023/10/14 02:36:53;;;;;;;3.03;2.83;;;18.80;99.90;;;;;;4974652;28;20177;-62
2023/10/14 02:39:27;;;;;;;6.77;4.20;;;18.80;99.90;;;;;;4974313;28;20779;-63
2023/10/14 02:42:00;;;;;;;3.80;3.60;;;18.70;99.90;;;;;;4970596;28;20169;-61
2023/10/14 02:44:32;;;;;;;2.83;2.73;;;18.70;99.90;;;;;;4975183;28;20923;-63
2023/10/14 02:47:04;;;;;;;3.50;3.33;;;18.60;99.90;;;;;;4974634;28;20415;-63
2023/10/14 02:49:38;;;;;;;3.30;3.20;;;18.50;99.90;;;;;;4975487;28;20506;-64
2023/10/14 02:52:11;;;;;;;2.57;2.57;;;18.50;99.90;;;;;;4974594;28;20432;-62
2023/10/14 02:54:44;;;;;;;3.07;2.97;;;18.50;99.90;;;;;;4975125;28;20542;-64
2023/10/14 02:59:48;;;;;;;3.27;3.17;;;18.50;99.90;;;;;;4957150;28;20397;-62
2023/10/14 03:02:25;;;;;;;2.90;2.77;;;18.40;99.90;;;;;;4973418;28;20479;-63
2023/10/14 03:07:28;;;;;;;3.93;3.77;;;18.40;99.90;;;;;;4974802;28;20514;-65
2023/10/14 03:10:09;;;;;;;3.40;3.20;;;18.30;99.90;;;;;;4974359;28;20415;-60
2023/10/14 03:12:38;;;;;;;3.30;3.20;;;18.20;99.90;;;;;;4975067;28;20438;-63
2023/10/14 03:15:21;;;;;;;3.50;3.30;;;18.20;99.90;;;;;;4973967;28;20475;-63
2023/10/14 03:18:13;;;;;;;3.50;3.40;;;18.10;99.90;;;;;;4974773;28;20426;-63
2023/10/14 03:20:45;;;;;;;3.57;3.47;;;18.10;99.90;;;;;;4974071;28;20432;-63
2023/10/14 03:23:22;;;;;;;3.80;3.60;;;18.10;99.90;;;;;;4973831;28;20946;-63
2023/10/14 03:25:53;;;;;;;3.47;3.37;;;18.10;99.90;;;;;;4960623;28;20783;-63
2023/10/14 03:28:21;;;;;;;3.97;3.77;;;18.00;99.90;;;;;;4964588;28;20490;-63
2023/10/14 03:30:55;;;;;;;4.23;4.03;;;18.10;99.90;;;;;;4975120;28;20996;-63
2023/10/14 03:33:22;;;;;;;4.20;4.00;;;18.00;99.90;;;;;;4971759;28;20436;-61
2023/10/14 03:36:29;;;;;;;4.97;4.10;;;18.00;99.90;;;;;;4969085;28;20888;-63
2023/10/14 03:38:55;;;;;;;4.23;4.03;;;18.00;99.90;;;;;;4962704;28;20440;-64
2023/10/14 03:41:21;;;;;;;3.90;3.80;;;18.10;99.90;;;;;;4973943;28;20459;-64
2023/10/14 03:46:30;;;;;;;4.00;3.70;;;18.00;99.90;;;;;;4974375;28;20405;-64
2023/10/14 03:48:56;;;;;;;4.20;4.00;;;18.00;99.90;;;;;;4973499;28;20817;-60
2023/10/14 03:51:25;;;;;;;4.63;4.20;;;18.00;99.90;;;;;;4974108;28;20415;-63
2023/10/14 03:53:56;;;;;;;3.37;3.17;;;17.90;99.90;;;;;;4973427;28;20427;-63
2023/10/14 03:56:25;;;;;;;3.80;3.47;;;17.80;99.90;;;;;;4973862;28;20554;-63
2023/10/14 03:59:03;;;;;;;3.83;3.60;;;17.80;99.90;;;;;;4973848;28;20424;-64
2023/10/14 04:04:17;;;;;;;4.03;3.50;;;17.70;99.90;;;;;;4971232;28;20507;-63
2023/10/14 04:12:31;;;;;;;3.13;3.03;;;17.50;99.90;;;;;;4973124;28;20503;-63
2023/10/14 04:15:06;;;;;;;3.60;3.37;;;17.40;99.90;;;;;;4972149;28;20483;-60
2023/10/14 04:17:32;;;;;;;3.10;2.90;;;17.20;99.90;;;;;;4960949;28;20427;-63
2023/10/14 04:20:15;;;;;;;3.80;3.10;;;17.30;99.90;;;;;;4955796;28;21086;-60
2023/10/14 04:22:41;;;;;;;6.20;3.47;;;17.30;99.90;;;;;;4960895;28;20475;-63
2023/10/14 04:27:45;;;;;;;2.83;2.63;;;17.20;99.90;;;;;;4961535;28;20463;-63
2023/10/14 04:30:12;;;;;;;3.47;3.17;;;17.20;99.90;;;;;;4972912;28;20423;-63
2023/10/14 04:32:43;;;;;;;3.33;3.10;;;17.10;99.90;;;;;;4972925;28;20427;-63
2023/10/14 04:35:12;;;;;;;3.90;3.20;;;17.10;99.90;;;;;;4972894;28;20443;-63
2023/10/14 04:37:53;;;;;;;3.23;3.03;;;17.10;99.90;;;;;;4973082;28;20438;-63
2023/10/14 04:48:58;;;;;;;3.60;3.30;;;17.10;99.90;;;;;;4913156;29;20926;-67
2023/10/14 04:51:30;;;;;;;3.80;3.50;;;17.10;99.90;;;;;;4965168;28;20432;-67
2023/10/14 04:54:00;;;;;;;4.03;3.07;;;17.10;99.90;;;;;;4973206;28;20459;-66
2023/10/14 04:56:32;;;;;;;8.37;3.50;;;17.00;99.90;;;;;;4973186;28;20483;-68
2023/10/14 04:58:59;;;;;;;4.20;3.23;;;17.00;99.90;;;;;;4972762;28;20470;-63
2023/10/14 05:01:24;;;;;;;5.50;4.10;;;17.00;99.90;;;;;;4973131;28;20500;-67
2023/10/14 05:03:56;;;;;;;4.73;3.60;;;17.00;99.90;;;;;;4972390;28;20916;-67
2023/10/14 05:06:22;;;;;;;3.73;3.30;;;17.00;99.90;;;;;;4972388;28;20211;-67
2023/10/14 05:08:51;;;;;;;6.13;3.97;;;17.00;99.90;;;;;;4973112;28;20507;-68
2023/10/14 05:11:18;;;;;;;4.07;3.77;;;17.00;99.90;;;;;;4965468;28;20487;-68
2023/10/14 05:16:30;;;;;;;4.33;3.30;;;16.90;99.90;;;;;;4954084;29;20440;-68
2023/10/14 05:19:07;;;;;;;6.00;4.20;;;16.80;99.90;;;;;;4937704;29;20440;-68
2023/10/14 05:21:36;;;;;;;6.43;3.20;;;16.80;99.90;;;;;;4936640;28;20233;-67
2023/10/14 05:24:06;;;;;;;5.80;3.83;;;16.80;99.90;;;;;;4956669;28;20435;-63
2023/10/14 05:26:36;;;;;;;5.23;4.23;;;16.80;99.90;;;;;;4972470;28;20438;-68
2023/10/14 05:29:17;;;;;;;4.47;4.00;;;16.80;99.90;;;;;;4974604;28;20507;-63
2023/10/14 05:31:46;;;;;;;4.37;3.17;;;16.70;99.90;;;;;;4976133;28;20445;-67
2023/10/14 05:34:12;;;;;;;4.13;3.10;;;16.70;99.90;;;;;;4968812;28;20865;-68
2023/10/14 05:36:38;;;;;;;4.60;3.40;;;16.70;99.90;;;;;;4976613;28;20455;-68
2023/10/14 05:39:04;;;;;;;4.40;3.87;;;16.70;99.90;;;;;;4976173;28;20423;-64
2023/10/14 05:41:30;;;;;;;3.90;3.37;;;16.70;99.90;;;;;;4976780;28;20462;-68
2023/10/14 05:43:56;;;;;;;4.57;2.97;;;16.70;99.90;;;;;;4976830;28;20202;-67
2023/10/14 05:46:23;;;;;;;4.70;3.60;;;16.70;99.90;;;;;;4975917;28;20426;-68
2023/10/14 05:48:53;;;;;;;3.20;3.00;;;16.70;99.90;;;;;;4976698;28;20176;-68
2023/10/14 05:51:19;;;;;;;9.03;3.90;;;16.70;99.90;;;;;;4976129;28;20519;-68
2023/10/14 05:53:48;;;;;;;6.47;4.63;;;16.70;99.90;;;;;;4976588;28;20399;-68
2023/10/14 05:56:16;;;;;;;5.17;4.30;;;16.60;99.90;;;;;;4972441;28;20489;-68
2023/10/14 05:58:45;;;;;;;6.10;4.17;;;16.60;99.90;;;;;;4974413;28;20435;-68
2023/10/14 06:01:13;;;;;;;8.10;5.13;;;16.60;99.90;;;;;;4974784;28;20436;-68
2023/10/14 06:03:43;;;;;;;8.30;4.40;;;16.60;99.90;;;;;;4953993;28;20425;-68
2023/10/14 06:06:16;;;;;;;6.70;3.90;;;16.50;99.90;;;;;;4965537;28;20490;-67
2023/10/14 06:08:46;;;;;;;4.50;3.53;;;16.50;99.90;;;;;;4975028;28;20434;-68
2023/10/14 06:11:18;;;;;;;5.73;4.20;;;16.50;99.90;;;;;;4975807;28;20415;-68
2023/10/14 06:13:44;;;;;;;4.53;3.90;;;16.50;99.90;;;;;;4976565;28;20787;-68
2023/10/14 06:16:14;;;;;;;7.93;4.00;;;16.50;99.90;;;;;;4975286;28;20459;-68
2023/10/14 06:18:41;;;;;;;7.60;4.00;;;16.50;99.90;;;;;;4976118;28;20210;-68
2023/10/14 06:21:10;;;;;;;9.60;3.90;;;16.50;99.90;;;;;;4957253;28;20823;-67
2023/10/14 06:23:39;;;;;;;12.17;5.10;;;16.50;99.90;;;;;;4975485;28;20910;-68
2023/10/14 06:26:06;;;;;;;7.17;4.40;;;16.50;99.90;;;;;;4975555;28;20423;-63
2023/10/14 06:28:32;;;;;;;5.27;3.80;;;16.50;99.90;;;;;;4975598;28;20478;-69
2023/10/14 06:31:00;;;;;;;4.33;3.77;;;16.50;99.90;;;;;;4976240;28;20423;-68
2023/10/14 06:33:26;;;;;;;6.50;4.33;;;16.40;99.90;;;;;;4975091;28;20501;-68
2023/10/14 06:35:53;;;;;;;4.83;3.70;;;16.40;99.90;;;;;;4975853;28;20451;-68
2023/10/14 06:38:19;;;;;;;3.77;3.40;;;16.40;99.90;;;;;;4957621;28;20419;-68
2023/10/14 06:40:54;;;;;;;7.53;3.30;;;16.40;99.90;;;;;;4974811;28;20425;-68
2023/10/14 06:43:22;;;;;;;4.60;4.20;;;16.40;99.90;;;;;;4974982;28;20815;-68
2023/10/14 06:45:51;;;;;;;4.40;3.80;;;16.40;99.90;;;;;;4975668;28;20431;-68
2023/10/14 06:48:17;;;;;;;4.47;3.77;;;16.50;99.90;;;;;;4974840;28;20850;-68
2023/10/14 06:50:47;;;;;;;4.03;3.73;;;16.40;99.90;;;;;;4974647;28;20423;-68
2023/10/14 06:53:18;;;;;;;5.40;3.83;;;16.50;99.90;;;;;;4974207;28;20437;-67
2023/10/14 06:55:45;;;;;;;7.43;4.00;;;16.40;99.90;;;;;;4975094;28;20939;-67
2023/10/14 06:58:13;;;;;;;4.70;3.60;;;16.50;99.90;;;;;;4974073;28;20443;-67
2023/10/14 07:00:41;;;;;;;6.37;3.50;;;16.50;99.90;;;;;;4975053;28;20517;-67
2023/10/14 07:03:16;;;;;;;3.67;2.97;;;16.50;99.90;;;;;;4974488;28;20956;-65
2023/10/14 07:05:48;;;;;;;10.90;4.97;;;16.50;99.90;;;;;;4975181;28;20542;-73
2023/10/14 07:08:21;;;;;;;8.73;5.10;;;16.60;99.90;;;;;;4973816;28;20420;-66
2023/10/14 07:10:50;;;;;;;5.30;3.80;;;16.80;99.90;;;;;;4975273;28;20412;-66
2023/10/14 07:13:17;;;;;;;5.63;3.30;;;17.00;99.90;;;;;;4957641;28;20773;-66
2023/10/14 07:15:44;;;;;;;5.70;4.00;;;17.40;99.90;;;;;;4974243;28;20448;-67
2023/10/14 07:18:13;;;;;;;11.30;6.20;;;17.70;99.90;;;;;;4957085;28;20436;-65
2023/10/14 07:20:41;;;;;;;9.27;4.83;;;17.70;99.90;;;;;;4975100;28;20470;-67
2023/10/14 07:23:08;;;;;;;5.17;3.90;;;17.90;99.90;;;;;;4973922;28;20439;-64
2023/10/14 07:25:42;;;;;;;6.67;4.30;;;18.10;99.90;;;;;;4974819;28;20418;-67
2023/10/14 07:28:13;;;;;;;4.53;3.80;;;18.20;99.90;;;;;;4973946;28;20475;-63
2023/10/14 07:30:47;;;;;;;5.63;4.40;;;18.40;99.90;;;;;;4973601;28;20442;-66
2023/10/14 07:33:14;;;;;;;6.93;4.40;;;18.50;99.90;;;;;;4967385;28;20428;-67
2023/10/14 07:35:40;;;;;;;5.20;3.73;;;18.60;99.90;;;;;;4962782;28;21039;-66
2023/10/14 07:38:06;;;;;;;4.33;3.93;;;18.70;99.90;;;;;;4966016;28;20443;-64
2023/10/14 07:40:34;;;;;;;6.33;4.30;;;18.70;99.90;;;;;;4964651;28;20408;-68
2023/10/14 07:43:05;;;;;;;5.67;4.30;;;18.80;99.90;;;;;;4964373;28;20419;-67
2023/10/14 07:45:35;;;;;;;7.73;3.53;;;18.90;99.90;;;;;;4965223;28;20412;-66
2023/10/14 07:48:08;;;;;;;7.10;5.37;;;18.90;99.90;;;;;;4965908;28;20545;-67
2023/10/14 07:50:37;;;;;;;11.57;7.17;;;18.90;99.90;;;;;;4965755;28;20584;-67
2023/10/14 07:53:07;;;;;;;4.80;4.40;;;18.90;99.90;;;;;;4970014;28;20433;-67
2023/10/14 07:55:43;;;;;;;5.67;3.90;;;18.90;99.90;;;;;;4964642;28;20444;-65
2023/10/14 07:58:10;;;;;;;8.53;5.23;;;18.90;99.90;;;;;;4955551;28;20585;-62
2023/10/14 08:00:40;;;;;;;5.00;3.00;;;18.90;99.90;;;;;;4969890;28;20439;-65
2023/10/14 08:03:09;;;;;;;7.40;5.13;;;18.90;99.90;;;;;;4966809;28;20481;-66
2023/10/14 08:05:38;;;;;;;7.60;4.10;;;18.90;99.90;;;;;;4953205;28;20432;-66
2023/10/14 08:08:07;;;;;;;9.60;3.60;;;18.90;99.90;;;;;;4966129;28;20563;-66
2023/10/14 08:10:33;;;;;;;8.80;5.30;;;18.90;99.90;;;;;;4954332;28;20511;-66
2023/10/14 08:13:04;;;;;;;10.03;4.47;;;18.90;99.90;;;;;;4954608;28;20435;-67
2023/10/14 08:15:31;;;;;;;4.90;4.40;;;19.00;99.90;;;;;;4953926;29;20449;-68
2023/10/14 08:18:00;;;;;;;7.70;4.10;;;18.90;99.90;;;;;;4937649;29;20845;-67
2023/10/14 08:20:31;;;;;;;7.23;4.87;;;18.90;99.90;;;;;;4969036;28;20832;-67
2023/10/14 08:22:57;;;;;;;10.50;5.00;;;19.00;99.90;;;;;;4973642;28;20420;-68
2023/10/14 08:25:25;;;;;;;6.10;4.50;;;19.00;99.90;;;;;;4972537;28;20435;-67
2023/10/14 08:27:55;;;;;;;8.03;6.00;;;19.10;99.90;;;;;;4958475;28;20471;-68
2023/10/14 08:30:24;;;;;;;10.27;5.80;;;19.10;99.90;;;;;;4954662;28;20437;-67
2023/10/14 08:32:52;;;;;;;5.77;5.10;;;19.20;99.90;;;;;;4973825;28;20416;-68
2023/10/14 08:35:19;;;;;;;8.37;5.57;;;19.20;99.90;;;;;;4954872;28;20879;-67
2023/10/14 08:37:47;;;;;;;6.13;4.67;;;19.20;99.90;;;;;;4972587;28;20420;-67
2023/10/14 08:40:29;;;;;;;7.27;5.90;;;19.30;99.90;;;;;;4973415;28;20506;-65
2023/10/14 08:43:05;;;;;;;8.57;5.93;;;19.30;99.90;;;;;;4973116;28;20420;-67
2023/10/14 08:45:39;;;;;;;10.10;4.93;;;19.30;99.90;;;;;;4955582;28;20424;-67
2023/10/14 08:48:08;;;;;;;11.40;6.20;;;19.30;99.90;;;;;;4972855;28;20424;-68
2023/10/14 08:50:35;;;;;;;7.67;4.67;;;19.30;99.90;;;;;;4969844;28;20414;-68
2023/10/14 08:53:07;;;;;;;11.40;5.10;;;19.40;99.90;;;;;;4973258;28;20478;-67
2023/10/14 08:55:34;;;;;;;5.17;4.67;;;19.40;99.90;;;;;;4972680;28;20448;-67
2023/10/14 08:58:01;;;;;;;8.10;5.10;;;19.50;99.90;;;;;;4972190;28;20441;-67
2023/10/14 09:00:29;;;;;;;91.43;57.23;;;19.60;99.90;;;;;;4964664;28;20412;-67
2023/10/14 09:02:57;;;;;;;38.67;27.03;;;19.60;99.90;;;;;;4967241;28;20416;-67
2023/10/14 09:05:26;;;;;;;12.80;9.13;;;19.70;99.90;;;;;;4970773;28;20447;-67
2023/10/14 09:07:55;;;;;;;10.00;7.63;;;19.70;99.90;;;;;;4969755;28;20748;-68
2023/10/14 09:10:24;;;;;;;11.50;6.70;;;19.80;99.90;;;;;;4970410;28;20423;-68
2023/10/14 09:13:03;;;;;;;9.73;6.10;;;19.80;99.90;;;;;;4968575;28;20420;-68
2023/10/14 09:15:32;;;;;;;11.13;6.87;;;19.80;99.90;;;;;;4968813;28;20447;-68
2023/10/14 09:17:59;;;;;;;6.67;4.33;;;19.90;99.90;;;;;;4971341;28;20419;-68
2023/10/14 09:20:36;;;;;;;10.13;4.40;;;19.90;99.00;;;;;;4972272;28;20783;-68
2023/10/14 09:23:34;;;;;;;7.83;4.37;;;19.90;97.50;;;;;;4960276;28;20431;-68
2023/10/14 09:26:02;;;;;;;9.97;5.47;;;19.90;98.00;;;;;;4977820;28;20436;-67
2023/10/14 09:28:33;;;;;;;7.73;5.03;;;19.80;98.00;;;;;;4970344;28;20447;-67
2023/10/14 09:31:02;;;;;;;9.23;4.57;;;19.80;98.20;;;;;;4974148;28;20427;-67
2023/10/14 09:33:34;;;;;;;7.27;4.23;;;19.80;98.10;;;;;;4970663;28;20427;-67
2023/10/14 09:36:22;;;;;;;6.20;5.00;;;19.80;97.50;;;;;;4968353;28;20543;-68
2023/10/14 09:38:50;;;;;;;6.50;4.00;;;19.80;97.10;;;;;;4971090;28;20411;-68
2023/10/14 09:41:16;;;;;;;5.57;3.97;;;19.70;97.00;;;;;;4959024;28;20431;-75
2023/10/14 09:43:48;;;;;;;9.83;4.07;;;19.80;96.00;;;;;;4968418;28;20409;-68
2023/10/14 09:46:17;;;;;;;5.77;3.67;;;19.80;96.60;;;;;;4960626;28;20833;-74
2023/10/14 09:48:44;;;;;;;6.30;3.60;;;20.00;95.20;;;;;;4967465;28;20930;-70
2023/10/14 09:51:12;;;;;;;4.90;4.03;;;20.00;94.90;;;;;;4968363;28;20427;-75
2023/10/14 09:53:38;;;;;;;6.83;4.87;;;20.00;95.80;;;;;;4969021;28;20448;-67
2023/10/14 09:56:10;;;;;;;4.63;4.20;;;20.00;93.50;;;;;;4959366;28;20483;-66
2023/10/14 09:58:44;;;;;;;6.07;2.80;;;20.10;96.30;;;;;;4959847;28;20426;-67
2023/10/14 10:01:15;;;;;;;10.30;3.80;;;20.10;94.00;;;;;;4975455;28;20430;-67
2023/10/14 10:03:46;;;;;;;4.70;3.70;;;20.10;94.40;;;;;;4976355;28;20438;-65
2023/10/14 10:06:17;;;;;;;25.37;19.90;;;20.20;95.40;;;;;;4975620;28;20471;-70
2023/10/14 10:08:52;;;;;;;48.63;37.93;;;20.30;94.20;;;;;;4974274;28;20483;-66
2023/10/14 10:11:25;;;;;;;7.50;6.33;;;20.40;93.30;;;;;;4973017;28;20782;-76
2023/10/14 10:13:54;;;;;;;5.33;4.30;;;20.50;93.70;;;;;;4958966;28;20782;-67
2023/10/14 10:16:28;;;;;;;9.67;4.60;;;20.60;92.90;;;;;;4969672;28;20486;-72
2023/10/14 10:18:58;;;;;;;7.43;4.30;;;20.70;93.20;;;;;;4974980;28;20469;-66
2023/10/14 10:21:35;;;;;;;8.33;4.20;;;20.60;92.80;;;;;;4965195;28;20431;-66
2023/10/14 10:24:17;;;;;;;8.07;4.40;;;20.30;91.00;;;;;;4958920;28;20458;-66
2023/10/14 10:27:05;;;;;;;7.10;5.20;;;20.00;91.50;;;;;;4954005;28;21009;-65
2023/10/14 10:29:34;;;;;;;6.50;4.97;;;19.90;92.50;;;;;;4953510;28;20471;-66
2023/10/14 10:32:12;;;;;;;7.40;4.43;;;19.90;94.50;;;;;;4956522;28;20452;-67
2023/10/14 10:35:06;;;;;;;7.13;4.93;;;19.90;92.50;;;;;;4955623;28;20786;-66
2023/10/14 10:37:43;;;;;;;9.73;4.43;;;20.10;93.70;;;;;;4955939;28;20737;-65
2023/10/14 10:40:10;;;;;;;5.00;2.90;;;20.20;94.10;;;;;;4956547;28;20811;-66
2023/10/14 10:42:37;;;;;;;6.67;3.40;;;20.30;92.60;;;;;;4955319;28;20420;-66
2023/10/14 10:45:09;;;;;;;5.07;3.53;;;20.30;93.50;;;;;;4956424;28;20429;-66
2023/10/14 10:48:05;;;;;;;6.40;3.97;;;20.30;93.40;;;;;;4955450;28;20409;-65
2023/10/14 10:50:39;;;;;;;5.97;3.20;;;20.20;90.70;;;;;;4943453;28;20429;-66
2023/10/14 10:53:08;;;;;;;6.90;3.53;;;20.20;92.50;;;;;;4954741;29;20888;-67
2023/10/14 10:55:40;;;;;;;7.20;3.87;;;20.20;92.70;;;;;;4955111;28;20519;-66
2023/10/14 10:58:09;;;;;;;6.90;3.37;;;20.20;92.50;;;;;;4956590;28;20424;-67
2023/10/14 11:00:38;;;;;;;6.20;3.30;;;20.20;93.20;;;;;;4954204;29;20440;-66
2023/10/14 11:03:05;;;;;;;5.63;3.30;;;20.40;91.70;;;;;;4954763;29;20436;-67
2023/10/14 11:05:33;;;;;;;5.07;3.43;;;20.70;92.80;;;;;;4955573;29;20523;-66
2023/10/14 11:08:01;;;;;;;5.40;3.50;;;20.90;91.70;;;;;;4955999;28;20431;-66
2023/10/14 11:10:28;;;;;;;5.33;3.37;;;21.10;90.40;;;;;;4954002;29;20417;-66
2023/10/14 11:12:55;;;;;;;6.20;3.10;;;21.30;92.60;;;;;;4954851;29;20835;-66
2023/10/14 11:15:22;;;;;;;7.90;3.37;;;21.50;90.10;;;;;;4953612;28;20453;-65
2023/10/14 11:17:58;;;;;;;5.70;3.53;;;21.60;88.30;;;;;;4955437;28;20452;-67
2023/10/14 11:20:26;;;;;;;4.77;3.67;;;21.70;88.70;;;;;;4954533;28;20412;-68
2023/10/14 11:22:56;;;;;;;3.43;2.90;;;21.70;91.40;;;;;;4954557;29;20435;-68
2023/10/14 11:25:22;;;;;;;6.03;2.90;;;21.80;88.00;;;;;;4954478;28;20428;-63
2023/10/14 11:27:49;;;;;;;6.97;3.63;;;22.00;89.90;;;;;;4953099;29;20463;-67
2023/10/14 11:30:18;;;;;;;5.17;3.23;;;21.90;84.30;;;;;;4951842;28;20472;-67
2023/10/14 11:32:51;;;;;;;18.13;5.23;;;21.90;84.60;;;;;;4951752;28;20528;-67
2023/10/14 11:35:19;;;;;;;7.60;3.80;;;22.00;81.50;;;;;;4935235;29;20453;-69
2023/10/14 11:38:03;;;;;;;22.77;14.47;;;22.10;82.30;;;;;;4947923;29;20438;-67
2023/10/14 11:40:34;;;;;;;32.43;22.70;;;22.20;81.80;;;;;;4946987;29;20421;-67
2023/10/14 11:43:00;;;;;;;6.10;5.00;;;22.20;81.00;;;;;;4945757;28;20554;-67
2023/10/14 11:45:26;;;;;;;5.63;3.40;;;22.20;80.40;;;;;;4942856;29;20424;-64
2023/10/14 11:47:52;;;;;;;4.10;3.20;;;22.20;79.70;;;;;;4948682;29;20431;-65
2023/10/14 11:50:19;;;;;;;6.20;3.17;;;22.20;80.70;;;;;;4946805;29;20182;-64
2023/10/14 11:52:48;;;;;;;4.10;3.00;;;22.20;84.50;;;;;;4945718;28;20564;-63
2023/10/14 11:55:15;;;;;;;4.87;3.03;;;22.10;81.90;;;;;;4949429;28;20449;-64
2023/10/14 11:57:44;;;;;;;4.83;3.13;;;22.00;79.80;;;;;;4951130;28;20428;-65
2023/10/14 12:00:16;;;;;;;7.53;4.03;;;21.90;81.30;;;;;;4953264;28;20436;-65
2023/10/14 12:02:43;;;;;;;5.43;4.13;;;21.80;80.20;;;;;;4945308;29;20561;-64
2023/10/14 12:05:10;;;;;;;8.10;3.60;;;21.60;83.10;;;;;;4946571;29;20924;-63
2023/10/14 12:07:35;;;;;;;4.40;3.50;;;21.60;82.30;;;;;;4932748;29;20440;-64
2023/10/14 12:10:04;;;;;;;7.07;2.80;;;21.50;82.70;;;;;;4945498;29;20422;-64
2023/10/14 12:12:30;;;;;;;4.13;3.03;;;21.40;80.10;;;;;;4945186;29;20999;-64
2023/10/14 12:14:58;;;;;;;6.33;2.70;;;21.30;79.00;;;;;;4948923;29;20821;-64
2023/10/14 12:17:23;;;;;;;4.33;3.20;;;21.20;81.80;;;;;;4946369;28;20429;-69
2023/10/14 12:19:49;;;;;;;4.50;2.97;;;21.20;82.90;;;;;;4945282;28;20404;-64
2023/10/14 12:22:16;;;;;;;5.43;3.77;;;21.30;85.80;;;;;;4949459;29;20189;-63
2023/10/14 12:24:41;;;;;;;5.17;3.47;;;21.20;85.10;;;;;;4953548;28;20435;-64
2023/10/14 12:27:14;;;;;;;5.73;3.20;;;21.20;85.60;;;;;;4960529;28;20463;-66
2023/10/14 12:29:40;;;;;;;4.93;3.20;;;21.00;84.90;;;;;;4955840;28;20249;-65
2023/10/14 12:32:12;;;;;;;5.10;3.47;;;20.90;87.70;;;;;;4973651;28;20439;-66
2023/10/14 12:34:39;;;;;;;3.63;3.20;;;20.80;80.20;;;;;;4952806;28;20928;-66
2023/10/14 12:37:14;;;;;;;4.80;2.67;;;20.80;84.20;;;;;;4971944;28;20859;-67
2023/10/14 12:39:44;;;;;;;3.77;2.93;;;20.90;84.30;;;;;;4972224;28;20926;-68
2023/10/14 12:42:16;;;;;;;6.30;3.60;;;20.90;84.30;;;;;;4973910;28;20427;-67
2023/10/14 12:44:42;;;;;;;7.00;2.93;;;20.90;84.20;;;;;;4972918;28;20404;-68
2023/10/14 12:47:11;;;;;;;3.37;2.73;;;20.90;83.00;;;;;;4973671;28;20819;-65
2023/10/14 12:49:40;;;;;;;4.97;3.10;;;20.80;84.10;;;;;;4972268;28;20176;-66
2023/10/14 12:52:12;;;;;;;6.30;3.40;;;20.80;81.30;;;;;;4956211;28;20416;-66
2023/10/14 12:54:49;;;;;;;4.63;2.77;;;20.70;80.90;;;;;;4972517;28;20426;-67
2023/10/14 12:57:16;;;;;;;5.63;3.13;;;20.70;83.30;;;;;;4973602;28;20439;-67
2023/10/14 12:59:42;;;;;;;5.00;3.07;;;20.60;80.70;;;;;;4972608;28;20447;-67
2023/10/14 13:02:09;;;;;;;4.67;3.07;;;20.50;78.40;;;;;;4973287;28;20991;-67
2023/10/14 13:04:41;;;;;;;3.50;2.90;;;20.40;81.50;;;;;;4970519;28;20199;-66
2023/10/14 13:07:10;;;;;;;4.67;2.60;;;20.30;82.90;;;;;;4973704;28;20428;-67
2023/10/14 13:09:38;;;;;;;3.57;2.87;;;20.20;79.50;;;;;;4973168;28;20416;-67
2023/10/14 13:12:13;;;;;;;4.00;2.43;;;20.20;79.10;;;;;;4954944;28;20431;-66
2023/10/14 13:14:39;;;;;;;3.10;2.47;;;20.10;78.40;;;;;;4973090;28;20438;-67
2023/10/14 13:17:07;;;;;;;4.00;2.53;;;20.00;81.50;;;;;;4973711;28;20423;-67
2023/10/14 13:19:36;;;;;;;3.80;2.67;;;20.00;77.50;;;;;;4955573;28;20427;-66
2023/10/14 13:22:09;;;;;;;4.83;2.90;;;20.00;80.50;;;;;;4972689;28;20807;-66
2023/10/14 13:24:38;;;;;;;5.43;3.30;;;20.10;87.20;;;;;;4973018;28;20451;-68
2023/10/14 13:27:04;;;;;;;3.03;2.50;;;20.20;85.10;;;;;;4973289;28;20474;-67
2023/10/14 13:29:31;;;;;;;3.97;2.63;;;20.20;84.00;;;;;;4972985;28;20783;-66
2023/10/14 13:31:56;;;;;;;4.40;3.03;;;20.20;85.70;;;;;;4973587;28;20459;-68
2023/10/14 13:34:22;;;;;;;4.47;3.13;;;20.10;85.80;;;;;;4973134;28;20466;-67